Time;durP1;ratioP1;P1;durP2;ratioP2;P2;SDS_P1;SDS_P2;PMS_P1;PMS_P2;Temp;Humidity;BMP_temperature;BMP_pressure;BME280_temperature;BME280_humidity;BME280_pressure;Samples;Min_cycle;Max_cycle;Signal;HPM_P1;HPM_P2
2022/09/10 00:01:16;;;;;;;0.75;0.75;;;;;;;;;;5027772;28;20327;-62
2022/09/10 00:03:43;;;;;;;1.10;0.68;;;;;;;;;;5010143;28;20241;-63
2022/09/10 00:06:11;;;;;;;5.70;0.57;;;;;;;;;;5009660;28;20644;-62
2022/09/10 00:08:39;;;;;;;0.57;0.57;;;;;;;;;;5026646;28;20295;-62
2022/09/10 00:11:07;;;;;;;1.17;0.80;;;;;;;;;;5009120;28;20213;-64
2022/09/10 00:13:34;;;;;;;0.70;0.70;;;;;;;;;;5025970;28;20200;-62
2022/09/10 00:16:03;;;;;;;2.47;0.80;;;;;;;;;;5028543;28;20690;-62
2022/09/10 00:18:30;;;;;;;1.88;0.90;;;;;;;;;;5021235;28;20724;-62
2022/09/10 00:20:58;;;;;;;0.70;0.70;;;;;;;;;;5013039;28;20259;-62
2022/09/10 00:23:27;;;;;;;0.77;0.65;;;;;;;;;;5017422;28;20244;-62
2022/09/10 00:25:56;;;;;;;0.60;0.60;;;;;;;;;;5012816;28;20217;-62
2022/09/10 00:28:38;;;;;;;0.82;0.82;;;;;;;;;;5018238;28;20208;-62
2022/09/10 00:31:05;;;;;;;0.63;0.63;;;;;;;;;;5024837;28;20259;-62
2022/09/10 00:33:32;;;;;;;0.40;0.40;;;;;;;;;;5018184;28;20275;-62
2022/09/10 00:35:59;;;;;;;0.85;0.82;;;;;;;;;;5018961;28;20217;-62
2022/09/10 00:38:28;;;;;;;1.13;0.63;;;;;;;;;;5012328;28;20217;-62
2022/09/10 00:41:02;;;;;;;1.88;0.50;;;;;;;;;;5013100;28;20680;-62
2022/09/10 00:43:46;;;;;;;0.85;0.52;;;;;;;;;;5025001;28;20282;-62
2022/09/10 00:46:13;;;;;;;0.60;0.60;;;;;;;;;;5026782;28;20283;-62
2022/09/10 00:48:40;;;;;;;0.63;0.52;;;;;;;;;;5031395;28;20213;-62
2022/09/10 00:51:07;;;;;;;0.82;0.82;;;;;;;;;;5015869;28;20208;-62
2022/09/10 00:53:35;;;;;;;0.50;0.50;;;;;;;;;;5028949;28;20200;-62
2022/09/10 00:56:03;;;;;;;1.25;0.57;;;;;;;;;;5030483;28;20209;-62
2022/09/10 00:58:30;;;;;;;0.55;0.55;;;;;;;;;;5013960;28;20300;-62
2022/09/10 01:01:00;;;;;;;2.45;0.60;;;;;;;;;;5011689;28;20271;-62
2022/09/10 01:03:28;;;;;;;0.50;0.50;;;;;;;;;;5027780;28;20208;-62
2022/09/10 01:05:56;;;;;;;0.50;0.50;;;;;;;;;;5012405;28;20233;-61
2022/09/10 01:08:23;;;;;;;0.50;0.50;;;;;;;;;;5026232;28;20205;-62
2022/09/10 01:10:58;;;;;;;1.55;0.57;;;;;;;;;;5028708;28;20614;-62
2022/09/10 01:13:31;;;;;;;0.57;0.57;;;;;;;;;;5016092;28;20258;-61
2022/09/10 01:16:03;;;;;;;2.42;0.77;;;;;;;;;;5020418;28;20292;-62
2022/09/10 01:18:33;;;;;;;2.22;0.60;;;;;;;;;;5020098;28;20229;-62
2022/09/10 01:21:11;;;;;;;2.13;0.70;;;;;;;;;;5011543;28;20212;-62
2022/09/10 01:23:56;;;;;;;0.45;0.45;;;;;;;;;;5010918;28;20310;-62
2022/09/10 01:26:32;;;;;;;1.42;0.75;;;;;;;;;;5027166;28;20231;-62
2022/09/10 01:29:02;;;;;;;0.63;0.63;;;;;;;;;;5019889;28;20266;-62
2022/09/10 01:31:34;;;;;;;0.60;0.60;;;;;;;;;;5026147;28;20690;-62
2022/09/10 01:34:03;;;;;;;1.73;0.65;;;;;;;;;;5028047;28;20205;-61
2022/09/10 01:36:32;;;;;;;1.15;0.60;;;;;;;;;;5027505;28;20563;-62
2022/09/10 01:39:00;;;;;;;0.50;0.50;;;;;;;;;;5020895;28;20212;-62
2022/09/10 01:41:28;;;;;;;1.38;0.52;;;;;;;;;;5022082;28;20201;-62
2022/09/10 01:43:55;;;;;;;1.58;0.65;;;;;;;;;;5024009;28;20271;-62
2022/09/10 01:46:32;;;;;;;0.60;0.60;;;;;;;;;;5030480;28;20215;-62
2022/09/10 01:49:03;;;;;;;0.52;0.52;;;;;;;;;;5020400;28;20243;-62
2022/09/10 01:51:35;;;;;;;2.67;0.90;;;;;;;;;;5014603;28;20209;-61
2022/09/10 01:54:10;;;;;;;0.50;0.50;;;;;;;;;;5011147;28;20213;-62
2022/09/10 01:56:41;;;;;;;0.80;0.57;;;;;;;;;;5011263;28;20209;-61
2022/09/10 01:59:13;;;;;;;1.50;0.80;;;;;;;;;;5016194;28;20651;-62
2022/09/10 02:01:43;;;;;;;0.93;0.93;;;;;;;;;;5019651;28;20211;-62
2022/09/10 02:04:13;;;;;;;0.60;0.60;;;;;;;;;;5021258;28;20729;-62
2022/09/10 02:06:41;;;;;;;0.70;0.60;;;;;;;;;;5010836;28;20741;-62
2022/09/10 02:09:09;;;;;;;0.55;0.55;;;;;;;;;;5025009;28;20239;-61
2022/09/10 02:11:46;;;;;;;0.50;0.50;;;;;;;;;;5016363;28;20572;-62
2022/09/10 02:14:13;;;;;;;0.60;0.60;;;;;;;;;;5018312;28;20205;-61
2022/09/10 02:16:42;;;;;;;0.65;0.50;;;;;;;;;;5010780;28;20209;-62
2022/09/10 02:19:10;;;;;;;0.88;0.70;;;;;;;;;;5016063;28;20224;-62
2022/09/10 02:21:37;;;;;;;0.63;0.63;;;;;;;;;;5011064;28;20204;-62
2022/09/10 02:24:06;;;;;;;1.25;0.75;;;;;;;;;;5026324;28;20707;-62
2022/09/10 02:26:33;;;;;;;0.93;0.85;;;;;;;;;;5030340;28;20266;-62
2022/09/10 02:29:00;;;;;;;0.40;0.40;;;;;;;;;;5012456;28;20213;-62
2022/09/10 02:31:28;;;;;;;0.73;0.40;;;;;;;;;;5010505;28;20259;-62
2022/09/10 02:33:56;;;;;;;0.93;0.60;;;;;;;;;;5022110;28;20632;-62
2022/09/10 02:36:24;;;;;;;0.63;0.55;;;;;;;;;;5010438;28;20213;-62
2022/09/10 02:38:52;;;;;;;0.50;0.50;;;;;;;;;;5024989;28;20215;-62
2022/09/10 02:41:24;;;;;;;0.50;0.50;;;;;;;;;;5029471;28;20210;-62
2022/09/10 02:43:51;;;;;;;0.40;0.40;;;;;;;;;;5014489;28;20744;-62
2022/09/10 02:46:18;;;;;;;0.40;0.40;;;;;;;;;;5010426;28;20742;-62
2022/09/10 02:48:45;;;;;;;3.70;0.60;;;;;;;;;;5021486;28;20255;-62
2022/09/10 02:51:13;;;;;;;0.50;0.50;;;;;;;;;;5025462;28;20219;-62
2022/09/10 02:53:40;;;;;;;1.40;0.47;;;;;;;;;;5018720;28;20729;-62
2022/09/10 02:56:07;;;;;;;0.57;0.57;;;;;;;;;;5010121;28;20208;-62
2022/09/10 02:58:34;;;;;;;0.45;0.45;;;;;;;;;;5010037;28;20208;-62
2022/09/10 03:01:08;;;;;;;0.55;0.45;;;;;;;;;;5010444;28;20201;-62
2022/09/10 03:03:35;;;;;;;0.40;0.40;;;;;;;;;;5010534;28;20741;-62
2022/09/10 03:06:02;;;;;;;1.75;0.50;;;;;;;;;;5010053;28;20295;-62
2022/09/10 03:08:31;;;;;;;0.38;0.38;;;;;;;;;;5011640;28;20213;-62
2022/09/10 03:10:59;;;;;;;0.85;0.40;;;;;;;;;;5029573;28;20204;-62
2022/09/10 03:13:26;;;;;;;0.80;0.50;;;;;;;;;;5026486;28;20197;-61
2022/09/10 03:15:54;;;;;;;0.52;0.50;;;;;;;;;;5009930;28;20292;-62
2022/09/10 03:18:22;;;;;;;0.43;0.43;;;;;;;;;;5012710;28;20221;-62
2022/09/10 03:20:49;;;;;;;0.40;0.40;;;;;;;;;;5029609;28;20318;-62
2022/09/10 03:23:16;;;;;;;0.98;0.50;;;;;;;;;;5026352;28;20548;-62
2022/09/10 03:25:45;;;;;;;0.50;0.38;;;;;;;;;;5028260;28;20228;-62
2022/09/10 03:28:12;;;;;;;0.40;0.40;;;;;;;;;;5027317;28;20836;-62
2022/09/10 03:30:41;;;;;;;1.35;0.50;;;;;;;;;;5009780;28;20216;-62
2022/09/10 03:33:10;;;;;;;1.13;0.43;;;;;;;;;;5009616;28;20209;-62
2022/09/10 03:35:38;;;;;;;1.55;0.55;;;;;;;;;;5024550;28;20305;-62
2022/09/10 03:38:05;;;;;;;0.40;0.40;;;;;;;;;;5029613;28;20303;-62
2022/09/10 03:40:33;;;;;;;0.50;0.50;;;;;;;;;;5028148;28;20208;-61
2022/09/10 03:43:01;;;;;;;0.43;0.43;;;;;;;;;;5029490;28;20247;-62
2022/09/10 03:45:29;;;;;;;0.50;0.50;;;;;;;;;;5011008;28;20229;-62
2022/09/10 03:47:56;;;;;;;1.77;0.52;;;;;;;;;;5009425;28;20296;-62
2022/09/10 03:50:23;;;;;;;0.40;0.40;;;;;;;;;;5016162;28;20278;-62
2022/09/10 03:52:50;;;;;;;0.85;0.50;;;;;;;;;;5024678;28;20204;-62
2022/09/10 03:55:17;;;;;;;0.50;0.50;;;;;;;;;;5017415;28;20201;-62
2022/09/10 03:57:44;;;;;;;0.80;0.40;;;;;;;;;;5013697;28;20224;-62
2022/09/10 04:00:13;;;;;;;2.67;0.50;;;;;;;;;;5016569;28;20299;-62
2022/09/10 04:02:40;;;;;;;0.55;0.40;;;;;;;;;;5032688;28;20208;-62
2022/09/10 04:05:08;;;;;;;0.60;0.60;;;;;;;;;;5020208;28;20339;-62
2022/09/10 04:07:36;;;;;;;1.08;0.50;;;;;;;;;;5013323;28;20688;-62
2022/09/10 04:10:03;;;;;;;1.10;0.73;;;;;;;;;;5024304;28;20246;-62
2022/09/10 04:12:30;;;;;;;1.17;0.80;;;;;;;;;;5032757;28;20671;-62
2022/09/10 04:14:57;;;;;;;0.70;0.70;;;;;;;;;;5023104;28;20212;-62
2022/09/10 04:17:27;;;;;;;1.67;0.98;;;;;;;;;;5013038;28;20739;-62
2022/09/10 04:19:54;;;;;;;1.55;0.80;;;;;;;;;;5024421;28;20219;-61
2022/09/10 04:22:21;;;;;;;1.10;1.10;;;;;;;;;;5031888;28;20239;-62
2022/09/10 04:24:48;;;;;;;1.20;0.80;;;;;;;;;;5021399;28;20237;-61
2022/09/10 04:27:15;;;;;;;1.20;0.90;;;;;;;;;;5013278;28;20271;-61
2022/09/10 04:29:43;;;;;;;1.08;1.08;;;;;;;;;;5022506;28;20287;-61
2022/09/10 04:32:10;;;;;;;0.55;0.55;;;;;;;;;;5012815;28;20217;-62
2022/09/10 04:34:39;;;;;;;1.00;0.98;;;;;;;;;;5012738;28;20201;-62
2022/09/10 04:37:06;;;;;;;2.20;0.82;;;;;;;;;;5012780;28;20664;-62
2022/09/10 04:39:33;;;;;;;0.77;0.77;;;;;;;;;;5016207;28;20255;-62
2022/09/10 04:42:01;;;;;;;0.90;0.90;;;;;;;;;;5012354;28;20619;-61
2022/09/10 04:44:28;;;;;;;0.90;0.90;;;;;;;;;;5017629;28;20255;-62
2022/09/10 04:46:55;;;;;;;1.00;1.00;;;;;;;;;;5030352;28;20208;-62
2022/09/10 04:49:22;;;;;;;1.55;0.98;;;;;;;;;;5027421;28;20632;-62
2022/09/10 04:51:50;;;;;;;2.00;0.82;;;;;;;;;;5032238;28;20204;-62
2022/09/10 04:54:18;;;;;;;0.82;0.82;;;;;;;;;;5025109;28;20209;-62
2022/09/10 04:56:46;;;;;;;0.80;0.80;;;;;;;;;;5031872;28;20212;-62
2022/09/10 04:59:14;;;;;;;0.77;0.65;;;;;;;;;;5024706;28;20641;-62
2022/09/10 05:01:41;;;;;;;1.90;0.80;;;;;;;;;;5012221;28;20253;-62
2022/09/10 05:04:08;;;;;;;0.90;0.90;;;;;;;;;;5012808;28;20263;-62
2022/09/10 05:06:35;;;;;;;0.85;0.68;;;;;;;;;;5028355;28;20286;-62
2022/09/10 05:09:03;;;;;;;0.98;0.85;;;;;;;;;;5027290;28;20243;-62
2022/09/10 05:11:30;;;;;;;1.17;1.02;;;;;;;;;;5031835;28;20836;-62
2022/09/10 05:13:57;;;;;;;1.70;0.98;;;;;;;;;;5023803;28;20208;-62
2022/09/10 05:16:24;;;;;;;1.05;1.05;;;;;;;;;;5019086;28;20204;-61
2022/09/10 05:18:52;;;;;;;2.50;0.82;;;;;;;;;;5020489;28;20228;-65
2022/09/10 05:21:19;;;;;;;1.00;1.00;;;;;;;;;;5011777;28;20304;-62
2022/09/10 05:23:46;;;;;;;2.58;0.70;;;;;;;;;;5017068;28;20279;-65
2022/09/10 05:26:15;;;;;;;0.60;0.60;;;;;;;;;;5019634;28;20781;-66
2022/09/10 05:28:42;;;;;;;1.00;1.00;;;;;;;;;;5021049;28;20747;-66
2022/09/10 05:31:09;;;;;;;0.88;0.88;;;;;;;;;;5014138;28;20292;-66
2022/09/10 05:33:39;;;;;;;0.77;0.77;;;;;;;;;;5011323;28;20548;-66
2022/09/10 05:36:08;;;;;;;0.70;0.70;;;;;;;;;;5025872;28;20197;-66
2022/09/10 05:38:35;;;;;;;1.13;0.70;;;;;;;;;;5029834;28;20212;-66
2022/09/10 05:41:02;;;;;;;0.77;0.77;;;;;;;;;;5024239;28;20209;-66
2022/09/10 05:43:30;;;;;;;0.70;0.55;;;;;;;;;;5010852;28;20212;-66
2022/09/10 05:45:57;;;;;;;2.10;0.75;;;;;;;;;;5023298;28;20669;-65
2022/09/10 05:48:24;;;;;;;1.00;1.00;;;;;;;;;;5010773;28;20298;-66
2022/09/10 05:50:51;;;;;;;0.80;0.80;;;;;;;;;;5024097;28;20204;-65
2022/09/10 05:53:18;;;;;;;1.17;0.65;;;;;;;;;;5030386;28;20219;-70
2022/09/10 05:55:45;;;;;;;0.80;0.80;;;;;;;;;;5017498;28;20213;-68
2022/09/10 05:58:13;;;;;;;0.65;0.65;;;;;;;;;;5026649;28;20232;-68
2022/09/10 06:00:42;;;;;;;1.55;0.90;;;;;;;;;;5022430;28;20308;-68
2022/09/10 06:03:10;;;;;;;0.90;0.75;;;;;;;;;;5016977;28;20201;-69
2022/09/10 06:05:37;;;;;;;1.02;1.02;;;;;;;;;;5010743;28;20232;-69
2022/09/10 06:08:04;;;;;;;1.20;0.98;;;;;;;;;;5022665;28;20208;-68
2022/09/10 06:10:31;;;;;;;1.15;0.93;;;;;;;;;;5028211;28;20212;-68
2022/09/10 06:12:58;;;;;;;0.98;0.90;;;;;;;;;;5029818;28;20212;-68
2022/09/10 06:15:26;;;;;;;0.68;0.68;;;;;;;;;;5024585;28;20208;-68
2022/09/10 06:17:55;;;;;;;1.00;1.00;;;;;;;;;;5017272;28;20640;-68
2022/09/10 06:20:22;;;;;;;4.15;0.80;;;;;;;;;;5028242;28;20208;-69
2022/09/10 06:22:50;;;;;;;1.15;1.05;;;;;;;;;;5019473;28;20216;-68
2022/09/10 06:25:17;;;;;;;0.70;0.70;;;;;;;;;;5020627;28;20252;-69
2022/09/10 06:27:45;;;;;;;0.80;0.80;;;;;;;;;;5014915;28;20204;-69
2022/09/10 06:30:13;;;;;;;0.80;0.80;;;;;;;;;;5028629;28;20208;-68
2022/09/10 06:32:40;;;;;;;0.70;0.70;;;;;;;;;;5030352;28;20813;-68
2022/09/10 06:35:09;;;;;;;0.80;0.80;;;;;;;;;;5017687;28;20220;-69
2022/09/10 06:37:36;;;;;;;0.80;0.80;;;;;;;;;;5011841;28;20324;-68
2022/09/10 06:40:03;;;;;;;0.85;0.85;;;;;;;;;;5014311;28;20224;-69
2022/09/10 06:42:30;;;;;;;0.50;0.50;;;;;;;;;;5010092;28;20217;-68
2022/09/10 06:44:59;;;;;;;0.85;0.75;;;;;;;;;;5014725;28;20214;-68
2022/09/10 06:47:26;;;;;;;0.40;0.40;;;;;;;;;;5029925;28;20781;-67
2022/09/10 06:49:53;;;;;;;0.55;0.55;;;;;;;;;;5017601;28;20212;-68
2022/09/10 06:52:21;;;;;;;0.50;0.50;;;;;;;;;;5010052;28;20212;-67
2022/09/10 06:54:50;;;;;;;1.08;0.77;;;;;;;;;;5010663;28;20270;-68
2022/09/10 06:57:17;;;;;;;1.45;0.85;;;;;;;;;;5012802;28;20209;-70
2022/09/10 06:59:44;;;;;;;0.73;0.73;;;;;;;;;;5018782;28;20287;-69
2022/09/10 07:02:14;;;;;;;0.50;0.50;;;;;;;;;;5018807;28;20642;-69
2022/09/10 07:04:41;;;;;;;1.25;0.88;;;;;;;;;;5013324;28;20604;-68
2022/09/10 07:07:08;;;;;;;0.57;0.57;;;;;;;;;;5018043;28;20232;-69
2022/09/10 07:09:37;;;;;;;2.55;0.60;;;;;;;;;;5018389;28;20205;-68
2022/09/10 07:12:04;;;;;;;0.63;0.50;;;;;;;;;;5018366;28;20204;-68
2022/09/10 07:14:32;;;;;;;0.70;0.70;;;;;;;;;;5017392;28;20207;-68
2022/09/10 07:16:59;;;;;;;0.70;0.70;;;;;;;;;;5019433;28;20746;-69
2022/09/10 07:19:26;;;;;;;0.75;0.70;;;;;;;;;;5018199;28;20610;-71
2022/09/10 07:21:53;;;;;;;1.02;0.60;;;;;;;;;;5019981;28;20208;-61
2022/09/10 07:24:20;;;;;;;1.67;0.85;;;;;;;;;;5017255;28;20351;-68
2022/09/10 07:26:48;;;;;;;0.80;0.80;;;;;;;;;;5017106;28;20327;-66
2022/09/10 07:29:15;;;;;;;0.77;0.77;;;;;;;;;;5015620;28;20934;-70
2022/09/10 07:31:42;;;;;;;0.77;0.77;;;;;;;;;;5017413;28;20216;-67
2022/09/10 07:34:10;;;;;;;0.75;0.75;;;;;;;;;;5016363;28;20205;-62
2022/09/10 07:36:37;;;;;;;1.00;0.90;;;;;;;;;;5016978;28;20284;-64
2022/09/10 07:39:04;;;;;;;0.80;0.80;;;;;;;;;;5013129;28;20201;-62
2022/09/10 07:41:34;;;;;;;0.70;0.70;;;;;;;;;;5017142;28;20204;-62
2022/09/10 07:44:02;;;;;;;0.90;0.90;;;;;;;;;;5018632;28;20201;-67
2022/09/10 07:46:29;;;;;;;1.48;0.95;;;;;;;;;;5016021;28;20298;-67
2022/09/10 07:48:57;;;;;;;1.33;1.23;;;;;;;;;;5016232;28;20213;-67
2022/09/10 07:51:25;;;;;;;0.95;0.90;;;;;;;;;;5013040;28;20910;-68
2022/09/10 07:53:54;;;;;;;1.45;0.95;;;;;;;;;;5018108;28;20691;-61
2022/09/10 07:56:21;;;;;;;0.70;0.70;;;;;;;;;;5016224;28;20197;-61
2022/09/10 07:58:49;;;;;;;2.05;0.90;;;;;;;;;;5017287;28;20691;-60
2022/09/10 08:01:19;;;;;;;0.68;0.68;;;;;;;;;;5018503;28;20997;-61
2022/09/10 08:03:46;;;;;;;0.77;0.73;;;;;;;;;;5011488;28;20658;-60
2022/09/10 08:06:13;;;;;;;0.65;0.63;;;;;;;;;;5018211;28;20305;-65
2022/09/10 08:08:41;;;;;;;0.70;0.70;;;;;;;;;;5018431;28;20201;-64
2022/09/10 08:11:10;;;;;;;0.90;0.90;;;;;;;;;;5017264;28;20228;-64
2022/09/10 08:13:37;;;;;;;1.23;0.70;;;;;;;;;;5010754;28;20213;-64
2022/09/10 08:16:06;;;;;;;1.02;1.02;;;;;;;;;;5011867;28;20201;-63
2022/09/10 08:18:35;;;;;;;1.67;0.80;;;;;;;;;;5014329;28;21023;-64
2022/09/10 08:21:02;;;;;;;0.70;0.70;;;;;;;;;;5016264;28;20205;-63
2022/09/10 08:23:29;;;;;;;0.75;0.75;;;;;;;;;;5018022;28;20236;-64
2022/09/10 08:25:57;;;;;;;2.78;1.25;;;;;;;;;;5017376;28;20232;-64
2022/09/10 08:28:24;;;;;;;0.88;0.88;;;;;;;;;;5018273;28;20205;-65
2022/09/10 08:31:06;;;;;;;2.53;0.85;;;;;;;;;;5018025;28;20205;-65
2022/09/10 08:33:35;;;;;;;1.05;1.05;;;;;;;;;;5012378;28;20209;-65
2022/09/10 08:36:03;;;;;;;1.35;1.27;;;;;;;;;;5009483;28;20209;-63
2022/09/10 08:38:31;;;;;;;1.42;1.33;;;;;;;;;;5012153;28;20555;-68
2022/09/10 08:40:59;;;;;;;1.92;1.83;;;;;;;;;;5025820;28;20584;-68
2022/09/10 08:43:30;;;;;;;1.35;1.00;;;;;;;;;;5016101;28;20251;-68
2022/09/10 08:45:58;;;;;;;0.98;0.98;;;;;;;;;;5024712;28;20294;-68
2022/09/10 08:48:26;;;;;;;0.88;0.88;;;;;;;;;;5028029;28;20231;-69
2022/09/10 08:50:57;;;;;;;1.33;1.27;;;;;;;;;;5016624;28;20209;-68
2022/09/10 08:53:26;;;;;;;2.13;1.92;;;;;;;;;;5029122;28;20266;-68
2022/09/10 08:55:56;;;;;;;5.68;2.13;;;;;;;;;;5026999;28;20223;-68
2022/09/10 08:58:25;;;;;;;1.00;0.90;;;;;;;;;;5015797;28;20736;-68
2022/09/10 09:00:55;;;;;;;2.72;0.90;;;;;;;;;;5022298;28;20208;-64
2022/09/10 09:03:25;;;;;;;1.52;0.90;;;;;;;;;;5020927;28;20262;-63
2022/09/10 09:05:54;;;;;;;2.83;1.25;;;;;;;;;;5014656;28;20217;-62
2022/09/10 09:08:24;;;;;;;1.13;0.88;;;;;;;;;;5012061;28;20295;-67
2022/09/10 09:10:54;;;;;;;0.90;0.80;;;;;;;;;;5017227;28;20295;-63
2022/09/10 09:13:27;;;;;;;5.22;1.08;;;;;;;;;;5022290;28;20270;-63
2022/09/10 09:15:59;;;;;;;0.93;0.73;;;;;;;;;;5014466;28;20734;-62
2022/09/10 09:18:31;;;;;;;1.23;0.60;;;;;;;;;;5025010;28;20971;-63
2022/09/10 09:21:00;;;;;;;0.60;0.60;;;;;;;;;;5023808;28;20204;-63
2022/09/10 09:23:33;;;;;;;0.60;0.60;;;;;;;;;;5027485;28;20318;-62
2022/09/10 09:26:04;;;;;;;2.38;0.90;;;;;;;;;;5015803;28;20262;-64
2022/09/10 09:28:40;;;;;;;2.53;0.70;;;;;;;;;;5011134;28;20224;-62
2022/09/10 09:31:11;;;;;;;2.28;0.82;;;;;;;;;;5019289;28;20212;-62
2022/09/10 09:33:38;;;;;;;0.55;0.55;;;;;;;;;;5030783;28;20553;-62
2022/09/10 09:36:05;;;;;;;1.30;0.70;;;;;;;;;;5010935;28;20217;-62
2022/09/10 09:38:36;;;;;;;2.47;0.60;;;;;;;;;;5011069;28;20691;-62
2022/09/10 09:41:07;;;;;;;2.35;0.90;;;;;;;;;;5014141;28;20583;-62
2022/09/10 09:43:41;;;;;;;2.05;0.63;;;;;;;;;;5029222;28;20262;-62
2022/09/10 09:46:12;;;;;;;0.80;0.80;;;;;;;;;;5030508;28;20207;-61
2022/09/10 09:48:40;;;;;;;0.75;0.70;;;;;;;;;;5030210;28;20702;-62
2022/09/10 09:51:10;;;;;;;0.85;0.85;;;;;;;;;;5028956;28;20216;-62
2022/09/10 09:53:39;;;;;;;0.52;0.52;;;;;;;;;;5027452;28;20302;-62
2022/09/10 09:56:07;;;;;;;0.95;0.70;;;;;;;;;;5030472;28;20220;-62
2022/09/10 09:58:35;;;;;;;0.60;0.60;;;;;;;;;;5028641;28;20211;-63
2022/09/10 10:01:13;;;;;;;1.70;0.63;;;;;;;;;;5030419;28;20232;-63
2022/09/10 10:03:47;;;;;;;1.45;0.63;;;;;;;;;;5026097;28;20663;-62
2022/09/10 10:06:14;;;;;;;2.70;0.90;;;;;;;;;;5025397;28;20610;-62
2022/09/10 10:08:44;;;;;;;1.85;0.50;;;;;;;;;;5012141;28;20205;-62
2022/09/10 10:11:13;;;;;;;3.30;0.60;;;;;;;;;;5026484;28;20554;-62
2022/09/10 10:13:41;;;;;;;0.60;0.60;;;;;;;;;;5013689;28;20660;-64
2022/09/10 10:16:18;;;;;;;0.38;0.38;;;;;;;;;;5011343;28;20284;-62
2022/09/10 10:18:45;;;;;;;1.23;0.70;;;;;;;;;;5010834;28;20287;-61
2022/09/10 10:21:14;;;;;;;0.80;0.65;;;;;;;;;;5010360;28;20212;-63
2022/09/10 10:23:41;;;;;;;0.63;0.50;;;;;;;;;;5011128;28;20712;-62
2022/09/10 10:26:27;;;;;;;1.48;0.80;;;;;;;;;;5010106;28;20292;-62
2022/09/10 10:28:57;;;;;;;1.95;0.73;;;;;;;;;;5010931;28;20216;-61
2022/09/10 10:31:24;;;;;;;0.73;0.60;;;;;;;;;;5019999;28;20212;-61
2022/09/10 10:33:54;;;;;;;0.75;0.65;;;;;;;;;;5026054;28;20258;-62
2022/09/10 10:36:25;;;;;;;1.40;0.70;;;;;;;;;;5010148;28;20220;-62
2022/09/10 10:38:55;;;;;;;0.60;0.60;;;;;;;;;;5024731;28;20221;-62
2022/09/10 10:41:38;;;;;;;2.08;1.00;;;;;;;;;;5010284;28;20216;-61
2022/09/10 10:44:23;;;;;;;0.63;0.63;;;;;;;;;;5025674;28;20208;-62
2022/09/10 10:46:54;;;;;;;1.33;1.00;;;;;;;;;;5000593;28;20236;-62
2022/09/10 10:49:27;;;;;;;1.17;0.70;;;;;;;;;;5014120;28;20200;-62
2022/09/10 10:52:00;;;;;;;0.52;0.52;;;;;;;;;;5029381;28;20212;-61
2022/09/10 10:54:40;;;;;;;0.70;0.70;;;;;;;;;;5025414;28;20204;-62
2022/09/10 10:57:12;;;;;;;0.77;0.63;;;;;;;;;;5009434;28;20668;-62
2022/09/10 10:59:44;;;;;;;2.60;0.73;;;;;;;;;;5012869;28;20309;-62
2022/09/10 11:02:13;;;;;;;0.88;0.88;;;;;;;;;;5028825;28;20351;-63
2022/09/10 11:04:43;;;;;;;0.68;0.52;;;;;;;;;;5021568;28;20359;-62
2022/09/10 11:07:12;;;;;;;0.75;0.70;;;;;;;;;;5010428;28;20773;-62
2022/09/10 11:09:42;;;;;;;0.70;0.70;;;;;;;;;;5022468;28;20581;-62
2022/09/10 11:12:12;;;;;;;1.95;0.77;;;;;;;;;;5028629;28;20216;-62
2022/09/10 11:14:43;;;;;;;0.55;0.55;;;;;;;;;;5028540;28;20236;-62
2022/09/10 11:17:13;;;;;;;1.45;0.55;;;;;;;;;;5028666;28;20690;-62
2022/09/10 11:19:42;;;;;;;0.55;0.55;;;;;;;;;;5021889;28;20205;-61
2022/09/10 11:22:13;;;;;;;0.60;0.60;;;;;;;;;;5008951;28;20263;-62
2022/09/10 11:24:44;;;;;;;0.75;0.63;;;;;;;;;;5018614;28;20278;-61
2022/09/10 11:27:14;;;;;;;0.63;0.60;;;;;;;;;;5008743;28;20221;-62
2022/09/10 11:29:43;;;;;;;0.40;0.40;;;;;;;;;;5010833;28;20762;-62
2022/09/10 11:32:13;;;;;;;1.45;0.20;;;;;;;;;;5028643;28;20216;-62
2022/09/10 11:34:46;;;;;;;0.30;0.30;;;;;;;;;;5018285;28;20205;-62
2022/09/10 11:37:15;;;;;;;0.40;0.40;;;;;;;;;;5008695;28;20216;-62
2022/09/10 11:39:46;;;;;;;0.80;0.32;;;;;;;;;;5017234;28;20266;-62
2022/09/10 11:42:17;;;;;;;0.40;0.40;;;;;;;;;;5008423;28;20789;-62
2022/09/10 11:44:48;;;;;;;0.60;0.32;;;;;;;;;;5010732;28;20197;-62
2022/09/10 11:47:17;;;;;;;1.20;0.25;;;;;;;;;;5008280;28;20232;-62
2022/09/10 11:49:48;;;;;;;0.30;0.30;;;;;;;;;;5024704;28;20212;-63
2022/09/10 11:52:16;;;;;;;0.38;0.38;;;;;;;;;;5028716;28;20215;-63
2022/09/10 11:54:45;;;;;;;0.22;0.22;;;;;;;;;;5017599;28;20232;-63
2022/09/10 11:57:18;;;;;;;0.20;0.20;;;;;;;;;;5027220;28;20228;-63
2022/09/10 12:00:01;;;;;;;0.68;0.15;;;;;;;;;;5026742;28;20208;-63
2022/09/10 12:02:44;;;;;;;0.20;0.20;;;;;;;;;;5018016;28;20595;-63
2022/09/10 12:05:18;;;;;;;0.20;0.20;;;;;;;;;;5008636;28;20676;-62
2022/09/10 12:07:49;;;;;;;0.25;0.25;;;;;;;;;;5008361;28;20224;-63
2022/09/10 12:10:20;;;;;;;0.22;0.22;;;;;;;;;;5020025;28;20208;-60
2022/09/10 12:12:50;;;;;;;0.20;0.20;;;;;;;;;;5015626;28;20209;-60
2022/09/10 12:15:19;;;;;;;0.20;0.20;;;;;;;;;;5016326;28;20211;-60
2022/09/10 12:17:48;;;;;;;0.20;0.20;;;;;;;;;;5031586;28;20227;-59
2022/09/10 12:20:18;;;;;;;0.20;0.20;;;;;;;;;;5023455;28;20205;-59
2022/09/10 12:22:46;;;;;;;0.10;0.10;;;;;;;;;;5024467;28;20299;-60
2022/09/10 12:25:24;;;;;;;0.17;0.17;;;;;;;;;;5025791;28;20260;-60
2022/09/10 12:27:55;;;;;;;0.20;0.20;;;;;;;;;;5014727;28;20283;-60
2022/09/10 12:30:36;;;;;;;0.30;0.30;;;;;;;;;;5018780;28;20205;-59
2022/09/10 12:33:26;;;;;;;0.52;0.20;;;;;;;;;;5015726;28;20682;-59
2022/09/10 12:35:53;;;;;;;0.20;0.20;;;;;;;;;;5014389;28;20219;-59
2022/09/10 12:38:35;;;;;;;0.30;0.30;;;;;;;;;;5019884;28;20213;-61
2022/09/10 12:41:02;;;;;;;0.10;0.10;;;;;;;;;;4987711;28;20217;-60
2022/09/10 12:43:48;;;;;;;0.20;0.20;;;;;;;;;;5012132;28;20271;-61
2022/09/10 12:46:21;;;;;;;0.15;0.15;;;;;;;;;;5011568;28;20234;-60
2022/09/10 12:48:50;;;;;;;0.20;0.20;;;;;;;;;;5013079;28;20228;-60
2022/09/10 12:51:26;;;;;;;0.20;0.20;;;;;;;;;;5018869;28;20231;-60
2022/09/10 12:54:02;;;;;;;0.20;0.20;;;;;;;;;;5026372;28;20626;-59
2022/09/10 12:56:48;;;;;;;0.20;0.20;;;;;;;;;;5031517;28;20217;-60
2022/09/10 12:59:23;;;;;;;1.75;0.20;;;;;;;;;;5031102;28;20200;-59
2022/09/10 13:01:52;;;;;;;0.10;0.10;;;;;;;;;;5019269;28;20205;-59
2022/09/10 13:04:23;;;;;;;0.20;0.20;;;;;;;;;;5011581;28;20209;-60
2022/09/10 13:06:52;;;;;;;0.20;0.20;;;;;;;;;;5011890;28;20251;-61
2022/09/10 13:09:21;;;;;;;0.20;0.20;;;;;;;;;;5011334;28;20239;-60
2022/09/10 13:11:50;;;;;;;0.30;0.30;;;;;;;;;;5018194;28;20262;-60
2022/09/10 13:14:19;;;;;;;0.10;0.10;;;;;;;;;;5019460;28;20601;-60
2022/09/10 13:16:47;;;;;;;0.20;0.20;;;;;;;;;;5020827;28;20204;-60
2022/09/10 13:19:33;;;;;;;0.20;0.20;;;;;;;;;;5019265;28;20670;-60
2022/09/10 13:22:02;;;;;;;0.20;0.20;;;;;;;;;;5016856;28;20628;-60
2022/09/10 13:24:39;;;;;;;0.45;0.45;;;;;;;;;;5017715;28;20311;-60
2022/09/10 13:27:19;;;;;;;0.30;0.30;;;;;;;;;;5010564;28;20208;-60
2022/09/10 13:29:48;;;;;;;0.20;0.20;;;;;;;;;;5019272;28;20212;-61
2022/09/10 13:32:19;;;;;;;0.20;0.20;;;;;;;;;;5011430;28;20659;-60
2022/09/10 13:35:05;;;;;;;0.15;0.15;;;;;;;;;;5007393;28;20236;-61
2022/09/10 13:37:41;;;;;;;1.40;0.20;;;;;;;;;;5010775;28;20690;-59
2022/09/10 13:40:22;;;;;;;0.17;0.17;;;;;;;;;;5026025;28;20634;-59
2022/09/10 13:43:00;;;;;;;2.10;0.20;;;;;;;;;;5027884;28;20208;-59
2022/09/10 13:45:29;;;;;;;0.10;0.10;;;;;;;;;;5025277;28;20204;-59
2022/09/10 13:48:00;;;;;;;0.10;0.10;;;;;;;;;;5025953;28;20245;-59
2022/09/10 13:50:31;;;;;;;0.90;0.20;;;;;;;;;;5021819;28;20208;-59
2022/09/10 13:53:00;;;;;;;0.32;0.10;;;;;;;;;;5016890;28;20213;-59
2022/09/10 13:55:29;;;;;;;0.30;0.30;;;;;;;;;;5009973;28;20209;-59
2022/09/10 13:57:57;;;;;;;0.20;0.20;;;;;;;;;;5009886;28;20292;-60
2022/09/10 14:00:25;;;;;;;0.30;0.30;;;;;;;;;;5009706;28;20205;-60
2022/09/10 14:02:55;;;;;;;0.20;0.20;;;;;;;;;;5017781;28;20212;-60
2022/09/10 14:05:34;;;;;;;0.20;0.20;;;;;;;;;;5023665;28;20358;-59
2022/09/10 14:08:05;;;;;;;0.10;0.10;;;;;;;;;;5029498;28;20224;-60
2022/09/10 14:10:33;;;;;;;0.20;0.20;;;;;;;;;;5011279;28;20648;-59
2022/09/10 14:13:01;;;;;;;0.20;0.20;;;;;;;;;;5010767;28;20212;-60
2022/09/10 14:15:30;;;;;;;0.15;0.15;;;;;;;;;;5026698;28;20236;-60
2022/09/10 14:17:59;;;;;;;0.20;0.20;;;;;;;;;;5028953;28;20235;-60
2022/09/10 14:20:27;;;;;;;0.20;0.20;;;;;;;;;;5020932;28;20205;-60
2022/09/10 14:22:58;;;;;;;0.20;0.20;;;;;;;;;;5021315;28;20258;-60
2022/09/10 14:25:31;;;;;;;0.20;0.20;;;;;;;;;;5028923;28;20761;-60
2022/09/10 14:28:18;;;;;;;0.20;0.20;;;;;;;;;;5029007;28;20230;-61
2022/09/10 14:30:45;;;;;;;0.20;0.20;;;;;;;;;;5009456;28;20209;-60
2022/09/10 14:33:28;;;;;;;0.25;0.25;;;;;;;;;;5018192;28;20208;-61
2022/09/10 14:35:57;;;;;;;2.03;0.30;;;;;;;;;;5017764;28;20235;-60
2022/09/10 14:38:25;;;;;;;0.17;0.17;;;;;;;;;;5011802;28;20201;-60
2022/09/10 14:40:56;;;;;;;0.20;0.20;;;;;;;;;;5009035;28;20215;-60
2022/09/10 14:43:28;;;;;;;0.10;0.10;;;;;;;;;;5016899;28;20223;-60
2022/09/10 14:45:55;;;;;;;0.38;0.20;;;;;;;;;;5018910;28;20209;-60
2022/09/10 14:48:31;;;;;;;0.20;0.20;;;;;;;;;;5009091;28;20224;-65
2022/09/10 14:51:16;;;;;;;0.52;0.20;;;;;;;;;;5009182;28;20208;-62
2022/09/10 14:53:44;;;;;;;0.17;0.17;;;;;;;;;;5009576;28;20300;-63
2022/09/10 14:56:20;;;;;;;0.20;0.20;;;;;;;;;;5020846;28;20212;-62
2022/09/10 14:58:47;;;;;;;0.10;0.10;;;;;;;;;;5023467;28;20299;-63